createdAt,value
2022-12-24T00:01:20.200Z,7.60
2022-12-24T00:03:47.157Z,7.60
2022-12-24T00:06:17.768Z,7.70
2022-12-24T00:08:44.633Z,7.80
2022-12-24T00:11:11.468Z,7.70
2022-12-24T00:13:39.815Z,7.70
2022-12-24T00:16:07.226Z,7.70
2022-12-24T00:18:34.882Z,7.70
2022-12-24T00:21:04.747Z,7.70
2022-12-24T00:23:31.440Z,7.70
2022-12-24T00:25:58.143Z,7.60
2022-12-24T00:28:24.881Z,7.60
2022-12-24T00:30:53.012Z,7.50
2022-12-24T00:33:24.421Z,7.50
2022-12-24T00:35:52.466Z,7.60
2022-12-24T00:38:19.192Z,7.50
2022-12-24T00:40:45.937Z,7.40
2022-12-24T00:43:12.658Z,7.50
2022-12-24T00:45:39.372Z,7.60
2022-12-24T00:48:07.624Z,7.50
2022-12-24T00:50:34.376Z,7.40
2022-12-24T00:53:01.106Z,7.40
2022-12-24T00:55:27.822Z,7.30
2022-12-24T00:57:54.524Z,7.40
2022-12-24T01:00:21.645Z,7.40
2022-12-24T01:02:48.512Z,7.40
2022-12-24T01:05:17.145Z,7.50
2022-12-24T01:07:45.047Z,7.50
2022-12-24T01:10:13.242Z,7.40
2022-12-24T01:12:40.084Z,7.40
2022-12-24T01:15:07.834Z,7.40
2022-12-24T01:17:34.928Z,7.30
2022-12-24T01:20:02.276Z,7.30
2022-12-24T01:22:30.464Z,7.20
2022-12-24T01:24:57.214Z,7.20
2022-12-24T01:27:23.983Z,7.10
2022-12-24T01:29:50.719Z,7.00
2022-12-24T01:32:17.696Z,7.20
2022-12-24T01:34:44.464Z,7.10
2022-12-24T01:37:11.212Z,7.00
2022-12-24T01:39:39.292Z,7.00
2022-12-24T01:42:18.274Z,7.00
2022-12-24T01:44:51.238Z,7.00
2022-12-24T01:47:21.261Z,6.90
2022-12-24T01:49:53.327Z,6.90
2022-12-24T01:52:24.756Z,6.80
2022-12-24T01:54:56.703Z,7.00
2022-12-24T01:57:27.687Z,6.90
2022-12-24T01:59:58.119Z,6.90
2022-12-24T02:02:26.327Z,6.80
2022-12-24T02:04:58.849Z,6.90
2022-12-24T02:07:25.716Z,6.60
2022-12-24T02:09:57.502Z,6.70
2022-12-24T02:12:24.688Z,6.80
2022-12-24T02:14:52.707Z,6.60
2022-12-24T02:17:29.799Z,6.70
2022-12-24T02:20:21.996Z,6.60
2022-12-24T02:23:09.664Z,6.60
2022-12-24T02:25:51.634Z,6.50
2022-12-24T02:28:36.793Z,6.50
2022-12-24T02:31:08.772Z,6.50
2022-12-24T02:33:42.171Z,6.50
2022-12-24T02:36:13.131Z,6.40
2022-12-24T02:38:48.181Z,6.60
2022-12-24T02:41:18.766Z,6.50
2022-12-24T02:43:47.622Z,6.40
2022-12-24T02:46:18.822Z,6.60
2022-12-24T02:48:48.392Z,6.40
2022-12-24T02:51:16.119Z,6.60
2022-12-24T02:53:42.944Z,6.60
2022-12-24T02:56:31.280Z,6.60
2022-12-24T02:59:25.651Z,6.60
2022-12-24T03:02:02.367Z,6.70
2022-12-24T03:04:34.941Z,6.60
2022-12-24T03:07:09.954Z,6.60
2022-12-24T03:09:40.974Z,6.40
2022-12-24T03:12:12.355Z,6.50
2022-12-24T03:14:40.684Z,6.50
2022-12-24T03:17:09.781Z,6.50
2022-12-24T03:19:36.451Z,6.50
2022-12-24T03:22:07.395Z,6.60
2022-12-24T03:24:34.672Z,6.50
2022-12-24T03:27:02.388Z,6.40
2022-12-24T03:29:29.199Z,6.40
2022-12-24T03:32:01.334Z,6.60
2022-12-24T03:34:30.110Z,6.70
2022-12-24T03:36:56.823Z,6.90
2022-12-24T03:39:23.754Z,6.90
2022-12-24T03:41:50.758Z,6.90
2022-12-24T03:44:17.476Z,7.00
2022-12-24T03:46:44.226Z,7.00
2022-12-24T03:49:10.943Z,7.20
2022-12-24T03:51:39.295Z,7.10
2022-12-24T03:54:06.119Z,7.20
2022-12-24T03:56:32.861Z,7.30
2022-12-24T03:58:59.636Z,7.30
2022-12-24T04:01:26.795Z,7.50
2022-12-24T04:03:53.576Z,7.50
2022-12-24T04:06:20.324Z,7.60
2022-12-24T04:08:48.426Z,7.70
2022-12-24T04:11:17.927Z,7.70
2022-12-24T04:13:45.175Z,7.70
2022-12-24T04:16:13.890Z,7.70
2022-12-24T04:18:41.498Z,7.80
2022-12-24T04:21:08.740Z,7.90
2022-12-24T04:23:36.831Z,7.90
2022-12-24T04:26:06.642Z,7.90
2022-12-24T04:28:33.961Z,7.80
2022-12-24T04:31:01.701Z,7.90
2022-12-24T04:33:29.053Z,7.90
2022-12-24T04:35:57.637Z,7.90
2022-12-24T04:38:24.610Z,7.90
2022-12-24T04:40:58.847Z,7.90
2022-12-24T04:43:27.241Z,8.00
2022-12-24T04:45:56.843Z,7.90
2022-12-24T04:48:23.736Z,7.90
2022-12-24T04:50:53.051Z,7.90
2022-12-24T04:53:19.763Z,7.90
2022-12-24T04:55:46.557Z,7.90
2022-12-24T04:58:13.850Z,7.90
2022-12-24T05:00:42.087Z,7.80
2022-12-24T05:03:08.998Z,7.80
2022-12-24T05:05:36.264Z,8.00
2022-12-24T05:08:03.252Z,8.00
2022-12-24T05:10:30.056Z,8.00
2022-12-24T05:12:59.445Z,8.00
2022-12-24T05:15:26.204Z,8.10
2022-12-24T05:17:54.241Z,8.10
2022-12-24T05:20:21.197Z,8.10
2022-12-24T05:22:47.900Z,8.10
2022-12-24T05:25:14.726Z,8.10
2022-12-24T05:27:50.753Z,8.20
2022-12-24T05:30:20.650Z,8.00
2022-12-24T05:32:49.680Z,8.10
2022-12-24T05:35:17.666Z,8.10
2022-12-24T05:37:44.399Z,8.10
2022-12-24T05:40:11.548Z,8.20
2022-12-24T05:42:38.263Z,8.20
2022-12-24T05:45:05.886Z,8.10
2022-12-24T05:47:41.256Z,8.00
2022-12-24T05:50:13.847Z,8.00
2022-12-24T05:52:44.523Z,8.00
2022-12-24T05:55:11.241Z,8.00
2022-12-24T05:57:39.949Z,7.90
2022-12-24T06:00:09.390Z,7.90
2022-12-24T06:02:36.209Z,7.90
2022-12-24T06:05:03.116Z,7.90
2022-12-24T06:07:29.908Z,7.80
2022-12-24T06:09:58.060Z,7.90
2022-12-24T06:12:25.028Z,7.90
2022-12-24T06:14:51.799Z,7.90
2022-12-24T06:17:18.642Z,7.90
2022-12-24T06:19:45.324Z,7.90
2022-12-24T06:22:12.031Z,8.00
2022-12-24T06:24:38.765Z,8.00
2022-12-24T06:27:06.810Z,8.00
2022-12-24T06:29:33.522Z,8.00
2022-12-24T06:32:00.382Z,8.00
2022-12-24T06:34:27.509Z,8.10
2022-12-24T06:36:54.259Z,8.00
2022-12-24T06:39:21.012Z,8.00
2022-12-24T06:41:47.712Z,8.00
2022-12-24T06:44:15.773Z,7.90
2022-12-24T06:46:42.574Z,8.00
2022-12-24T06:49:09.590Z,8.10
2022-12-24T06:51:36.351Z,8.00
2022-12-24T06:54:03.332Z,8.00
2022-12-24T06:56:30.133Z,7.90
2022-12-24T06:59:03.167Z,8.00
2022-12-24T07:01:35.898Z,8.00
2022-12-24T07:04:02.763Z,7.90
2022-12-24T07:06:30.378Z,7.90
2022-12-24T07:08:57.536Z,7.90
2022-12-24T07:11:25.130Z,7.80
2022-12-24T07:13:51.913Z,7.90
2022-12-24T07:16:18.856Z,7.80
2022-12-24T07:18:48.408Z,7.80
2022-12-24T07:21:15.180Z,7.90
2022-12-24T07:23:42.029Z,7.80
2022-12-24T07:26:08.788Z,7.80
2022-12-24T07:28:35.582Z,7.80
2022-12-24T07:31:02.403Z,7.80
2022-12-24T07:33:29.326Z,7.80
2022-12-24T07:36:02.605Z,7.90
2022-12-24T07:38:31.358Z,7.90
2022-12-24T07:40:58.692Z,7.90
2022-12-24T07:43:25.976Z,7.80
2022-12-24T07:45:55.464Z,7.80
2022-12-24T07:48:22.367Z,7.70
2022-12-24T07:50:49.578Z,7.60
2022-12-24T07:53:17.647Z,7.60
2022-12-24T07:55:44.504Z,7.60
2022-12-24T07:58:11.255Z,7.60
2022-12-24T08:00:38.181Z,7.70
2022-12-24T08:03:05.231Z,7.70
2022-12-24T08:05:36.064Z,7.70
2022-12-24T08:08:03.148Z,7.70
2022-12-24T08:10:31.256Z,7.70
2022-12-24T08:12:57.930Z,7.70
2022-12-24T08:15:24.677Z,7.70
2022-12-24T08:17:51.508Z,7.70
2022-12-24T08:20:18.395Z,7.70
2022-12-24T08:22:45.139Z,7.70
2022-12-24T08:25:11.900Z,7.80
2022-12-24T08:27:40.196Z,7.70
2022-12-24T08:30:08.291Z,7.80
2022-12-24T08:32:35.164Z,7.80
2022-12-24T08:35:01.933Z,7.80
2022-12-24T08:37:28.746Z,7.80
2022-12-24T08:39:55.521Z,7.90
2022-12-24T08:42:23.696Z,7.90
2022-12-24T08:44:51.779Z,7.90
2022-12-24T08:47:18.468Z,7.90
2022-12-24T08:49:45.267Z,7.90
2022-12-24T08:52:14.830Z,7.90
2022-12-24T08:54:44.327Z,7.90
2022-12-24T08:57:15.508Z,7.90
2022-12-24T08:59:44.772Z,8.00
2022-12-24T09:02:13.101Z,7.90
2022-12-24T09:04:40.528Z,8.00
2022-12-24T09:07:07.381Z,8.10
2022-12-24T09:09:37.935Z,8.00
2022-12-24T09:12:10.702Z,8.00
2022-12-24T09:14:37.439Z,8.10
2022-12-24T09:17:04.239Z,8.20
2022-12-24T09:19:32.349Z,8.20
2022-12-24T09:21:59.074Z,8.20
2022-12-24T09:24:25.845Z,8.20
2022-12-24T09:26:57.796Z,8.20
2022-12-24T09:29:24.949Z,8.20
2022-12-24T09:31:51.786Z,8.20
2022-12-24T09:34:26.579Z,8.30
2022-12-24T09:37:06.031Z,8.40
2022-12-24T09:39:34.756Z,8.30
2022-12-24T09:42:16.672Z,8.30
2022-12-24T09:44:46.428Z,8.30
2022-12-24T09:47:24.439Z,8.30
2022-12-24T09:49:54.574Z,8.30
2022-12-24T09:52:29.476Z,8.30
2022-12-24T09:55:03.424Z,8.30
2022-12-24T09:57:34.421Z,8.40
2022-12-24T10:00:01.970Z,8.50
2022-12-24T10:02:28.817Z,8.50
2022-12-24T10:04:55.715Z,8.50
2022-12-24T10:07:37.839Z,8.50
2022-12-24T10:10:14.710Z,8.50
2022-12-24T10:12:50.096Z,8.50
2022-12-24T10:15:25.920Z,8.50
2022-12-24T10:18:06.262Z,8.40
2022-12-24T10:20:46.016Z,8.40
2022-12-24T10:23:20.912Z,8.40
2022-12-24T10:25:53.322Z,8.50
2022-12-24T10:28:24.595Z,8.60
2022-12-24T10:30:57.957Z,8.70
2022-12-24T10:33:32.079Z,8.60
2022-12-24T10:36:01.569Z,8.80
2022-12-24T10:38:34.356Z,9.10
2022-12-24T10:41:08.093Z,9.00
2022-12-24T10:43:37.576Z,8.80
2022-12-24T10:46:07.281Z,9.00
2022-12-24T10:48:43.468Z,8.90
2022-12-24T10:51:21.176Z,8.80
2022-12-24T10:53:56.051Z,8.80
2022-12-24T10:56:22.844Z,8.90
2022-12-24T10:59:01.133Z,8.80
2022-12-24T11:01:44.281Z,8.80
2022-12-24T11:04:16.376Z,8.70
2022-12-24T11:06:55.493Z,8.60
2022-12-24T11:09:28.301Z,8.60
2022-12-24T11:12:21.418Z,8.60
2022-12-24T11:15:01.562Z,8.70
2022-12-24T11:17:31.630Z,8.80
2022-12-24T11:19:59.080Z,8.80
2022-12-24T11:22:28.681Z,8.90
2022-12-24T11:25:02.385Z,8.80
2022-12-24T11:27:39.127Z,8.70
2022-12-24T11:30:30.315Z,8.60
2022-12-24T11:33:17.780Z,8.70
2022-12-24T11:35:51.596Z,8.80
2022-12-24T11:38:24.022Z,8.90
2022-12-24T11:41:01.574Z,9.00
2022-12-24T11:43:48.560Z,8.90
2022-12-24T11:46:35.234Z,9.00
2022-12-24T11:49:22.152Z,8.90
2022-12-24T11:52:21.355Z,9.00
2022-12-24T11:55:18.086Z,8.90
2022-12-24T11:57:57.868Z,8.80
2022-12-24T12:00:27.424Z,8.70
2022-12-24T12:02:56.990Z,8.60
2022-12-24T12:05:28.448Z,8.70
2022-12-24T12:08:03.128Z,8.70
2022-12-24T12:10:36.645Z,8.80
2022-12-24T12:13:15.053Z,8.80
2022-12-24T12:15:47.131Z,8.80
2022-12-24T12:18:16.705Z,8.90
2022-12-24T12:20:46.684Z,8.90
2022-12-24T12:23:17.418Z,8.90
2022-12-24T12:25:47.675Z,8.80
2022-12-24T12:28:22.740Z,8.90
2022-12-24T12:30:59.470Z,9.10
2022-12-24T12:33:31.417Z,9.00
2022-12-24T12:36:01.466Z,8.90
2022-12-24T12:38:30.343Z,8.90
2022-12-24T12:41:04.001Z,8.90
2022-12-24T12:43:49.812Z,9.00
2022-12-24T12:46:21.319Z,8.90
2022-12-24T12:49:03.985Z,8.90
2022-12-24T12:51:37.781Z,8.90
2022-12-24T12:54:22.052Z,8.70
2022-12-24T12:56:54.750Z,8.50
2022-12-24T12:59:30.663Z,8.60
2022-12-24T13:02:09.223Z,8.60
2022-12-24T13:04:59.742Z,8.70
2022-12-24T13:07:40.969Z,8.80
2022-12-24T13:10:33.129Z,8.80
2022-12-24T13:13:22.676Z,8.80
2022-12-24T13:16:00.996Z,8.90
2022-12-24T13:18:49.967Z,9.10
2022-12-24T13:21:20.917Z,9.20
2022-12-24T13:23:48.835Z,9.00
2022-12-24T13:26:16.122Z,9.00
2022-12-24T13:28:43.731Z,8.90
2022-12-24T13:31:28.077Z,8.90
2022-12-24T13:34:04.137Z,9.00
2022-12-24T13:37:03.250Z,9.00
2022-12-24T13:40:07.921Z,8.90
2022-12-24T13:42:50.142Z,8.80
2022-12-24T13:45:46.924Z,8.80
2022-12-24T13:48:33.452Z,8.70
2022-12-24T13:51:17.659Z,8.70
2022-12-24T13:53:47.157Z,8.50
2022-12-24T13:56:25.191Z,8.40
2022-12-24T13:59:10.069Z,8.30
2022-12-24T14:01:42.812Z,8.30
2022-12-24T14:04:20.881Z,8.30
2022-12-24T14:06:51.598Z,8.40
2022-12-24T14:09:21.035Z,8.30
2022-12-24T14:12:27.844Z,8.30
2022-12-24T14:14:56.083Z,8.20
2022-12-24T14:17:24.747Z,8.10
2022-12-24T14:19:54.466Z,8.00
2022-12-24T14:22:28.676Z,7.90
2022-12-24T14:24:58.237Z,7.90
2022-12-24T14:27:32.248Z,7.90
2022-12-24T14:30:05.553Z,7.80
2022-12-24T14:32:36.685Z,7.80
2022-12-24T14:35:08.795Z,7.80
2022-12-24T14:37:36.579Z,7.60
2022-12-24T14:40:04.290Z,7.50
2022-12-24T14:42:52.934Z,7.60
2022-12-24T14:45:31.585Z,7.40
2022-12-24T14:48:08.544Z,7.40
2022-12-24T14:50:55.793Z,7.50
2022-12-24T14:53:36.021Z,7.50
2022-12-24T14:56:15.595Z,7.20
2022-12-24T14:58:43.434Z,7.20
2022-12-24T15:01:22.729Z,7.10
2022-12-24T15:04:01.333Z,7.00
2022-12-24T15:06:28.963Z,6.80
2022-12-24T15:08:56.013Z,6.50
2022-12-24T15:11:24.234Z,6.70
2022-12-24T15:13:52.933Z,6.70
2022-12-24T15:16:24.335Z,6.70
2022-12-24T15:18:55.213Z,6.70
2022-12-24T15:21:28.694Z,6.40
2022-12-24T15:23:55.471Z,6.40
2022-12-24T15:26:26.788Z,6.50
2022-12-24T15:29:02.164Z,6.50
2022-12-24T15:31:32.180Z,6.60
2022-12-24T15:33:59.673Z,6.60
2022-12-24T15:36:29.031Z,6.40
2022-12-24T15:38:58.945Z,6.40
2022-12-24T15:41:28.304Z,6.40
2022-12-24T15:44:00.396Z,6.30
2022-12-24T15:46:28.853Z,6.30
2022-12-24T15:49:00.428Z,6.20
2022-12-24T15:51:30.735Z,6.30
2022-12-24T15:54:00.844Z,6.10
2022-12-24T15:56:34.261Z,6.10
2022-12-24T15:59:25.481Z,6.10
2022-12-24T16:01:52.320Z,6.00
2022-12-24T16:04:24.948Z,6.00
2022-12-24T16:06:53.935Z,5.90
2022-12-24T16:09:30.427Z,5.80
2022-12-24T16:12:02.845Z,5.70
2022-12-24T16:14:32.014Z,5.80
2022-12-24T16:16:58.800Z,5.70
2022-12-24T16:19:35.854Z,5.60
2022-12-24T16:22:06.386Z,5.60
2022-12-24T16:24:35.792Z,5.40
2022-12-24T16:27:02.481Z,5.40
2022-12-24T16:29:29.243Z,5.40
2022-12-24T16:31:57.499Z,5.40
2022-12-24T16:34:27.743Z,5.40
2022-12-24T16:36:55.153Z,5.30
2022-12-24T16:39:23.813Z,5.40
2022-12-24T16:41:53.727Z,5.40
2022-12-24T16:44:20.486Z,5.30
2022-12-24T16:46:47.350Z,5.30
2022-12-24T16:49:17.143Z,5.20
2022-12-24T16:51:45.288Z,5.10
2022-12-24T16:54:12.819Z,4.90
2022-12-24T16:56:39.824Z,4.90
2022-12-24T16:59:06.740Z,4.80
2022-12-24T17:01:33.588Z,4.80
2022-12-24T17:04:00.441Z,4.70
2022-12-24T17:06:27.325Z,4.70
2022-12-24T17:08:55.673Z,4.70
2022-12-24T17:11:23.422Z,4.60
2022-12-24T17:13:50.492Z,4.60
2022-12-24T17:16:17.367Z,4.50
2022-12-24T17:18:44.259Z,4.40
2022-12-24T17:21:11.026Z,4.30
2022-12-24T17:23:39.843Z,4.40
2022-12-24T17:26:13.607Z,4.40
2022-12-24T17:28:42.805Z,4.40
2022-12-24T17:31:10.956Z,4.40
2022-12-24T17:33:37.748Z,4.50
2022-12-24T17:36:04.813Z,4.50
2022-12-24T17:38:31.713Z,4.60
2022-12-24T17:41:02.166Z,4.60
2022-12-24T17:43:30.371Z,4.60
2022-12-24T17:45:57.140Z,4.70
2022-12-24T17:48:24.000Z,4.70
2022-12-24T17:50:50.777Z,4.70
2022-12-24T17:53:20.841Z,4.70
2022-12-24T17:55:47.624Z,4.70
2022-12-24T17:58:14.632Z,4.70
2022-12-24T18:00:42.756Z,4.80
2022-12-24T18:03:12.970Z,4.70
2022-12-24T18:05:39.793Z,4.70
2022-12-24T18:08:09.534Z,4.80
2022-12-24T18:10:36.371Z,4.70
2022-12-24T18:13:03.279Z,4.70
2022-12-24T18:15:34.121Z,4.70
2022-12-24T18:18:02.250Z,4.70
2022-12-24T18:20:30.436Z,4.70
2022-12-24T18:22:57.454Z,4.60
2022-12-24T18:25:24.207Z,4.60
2022-12-24T18:27:52.284Z,4.70
2022-12-24T18:30:24.220Z,4.60
2022-12-24T18:32:54.579Z,4.60
2022-12-24T18:35:22.676Z,4.60
2022-12-24T18:37:49.580Z,4.80
2022-12-24T18:40:16.792Z,4.80
2022-12-24T18:42:44.179Z,4.80
2022-12-24T18:45:11.517Z,4.80
2022-12-24T18:47:38.389Z,5.00
2022-12-24T18:50:06.865Z,4.90
2022-12-24T18:52:34.955Z,4.90
2022-12-24T18:55:01.722Z,5.00
2022-12-24T18:57:28.461Z,4.90
2022-12-24T18:59:56.263Z,4.90
2022-12-24T19:02:23.148Z,4.90
2022-12-24T19:04:49.994Z,4.90
2022-12-24T19:07:17.027Z,4.90
2022-12-24T19:09:45.149Z,5.00
2022-12-24T19:12:11.913Z,4.90
2022-12-24T19:14:38.781Z,5.00
2022-12-24T19:17:05.498Z,5.10
2022-12-24T19:19:32.208Z,5.10
2022-12-24T19:21:58.975Z,5.10
2022-12-24T19:24:26.737Z,5.10
2022-12-24T19:26:54.835Z,5.10
2022-12-24T19:29:21.743Z,5.10
2022-12-24T19:31:48.596Z,5.20
2022-12-24T19:34:17.277Z,5.20
2022-12-24T19:36:44.040Z,5.20
2022-12-24T19:39:12.293Z,5.20
2022-12-24T19:41:39.197Z,5.00
2022-12-24T19:44:07.447Z,5.00
2022-12-24T19:46:35.125Z,4.90
2022-12-24T19:49:06.462Z,4.80
2022-12-24T19:51:34.111Z,4.80
2022-12-24T19:54:01.778Z,4.80
2022-12-24T19:56:30.500Z,4.70
2022-12-24T19:58:58.073Z,4.80
2022-12-24T20:01:28.626Z,4.80
2022-12-24T20:03:57.391Z,4.80
2022-12-24T20:06:26.433Z,4.80
2022-12-24T20:08:57.408Z,4.80
2022-12-24T20:11:24.110Z,4.80
2022-12-24T20:13:50.932Z,4.80
2022-12-24T20:16:20.181Z,4.80
2022-12-24T20:18:52.258Z,4.80
2022-12-24T20:21:19.189Z,4.90
2022-12-24T20:23:46.005Z,4.90
2022-12-24T20:26:15.921Z,4.90
2022-12-24T20:28:42.792Z,5.10
2022-12-24T20:31:13.955Z,5.10
2022-12-24T20:33:41.218Z,5.20
2022-12-24T20:36:13.483Z,5.30
2022-12-24T20:38:40.251Z,5.40
2022-12-24T20:41:07.564Z,5.40
2022-12-24T20:43:38.463Z,5.50
2022-12-24T20:46:09.228Z,5.50
2022-12-24T20:48:36.837Z,5.50
2022-12-24T20:51:06.686Z,5.50
2022-12-24T20:53:35.316Z,5.50
2022-12-24T20:56:02.430Z,5.60
2022-12-24T20:58:29.376Z,5.70
2022-12-24T21:00:56.151Z,5.70
2022-12-24T21:03:23.012Z,5.80
2022-12-24T21:05:49.828Z,5.90
2022-12-24T21:08:16.595Z,5.90
2022-12-24T21:10:48.532Z,5.90
2022-12-24T21:13:15.301Z,5.90
2022-12-24T21:15:42.061Z,5.80
2022-12-24T21:18:09.144Z,5.90
2022-12-24T21:20:36.635Z,5.90
2022-12-24T21:23:03.734Z,5.90
2022-12-24T21:25:30.480Z,5.90
2022-12-24T21:27:58.659Z,5.90
2022-12-24T21:30:25.486Z,6.00
2022-12-24T21:32:52.418Z,5.90
2022-12-24T21:35:19.204Z,5.90
2022-12-24T21:37:45.931Z,5.90
2022-12-24T21:40:13.050Z,5.90
2022-12-24T21:42:39.772Z,5.80
2022-12-24T21:45:10.419Z,5.70
2022-12-24T21:47:37.154Z,5.80
2022-12-24T21:50:04.579Z,5.80
2022-12-24T21:52:31.282Z,5.70
2022-12-24T21:54:58.015Z,5.70
2022-12-24T21:57:24.781Z,5.60
2022-12-24T21:59:54.529Z,5.70
2022-12-24T22:02:25.007Z,5.60
2022-12-24T22:04:52.068Z,5.50
2022-12-24T22:07:21.625Z,5.50
2022-12-24T22:09:51.521Z,5.50
2022-12-24T22:12:19.320Z,5.50
2022-12-24T22:14:47.327Z,5.50
2022-12-24T22:17:17.111Z,5.30
2022-12-24T22:19:47.900Z,5.40
2022-12-24T22:22:14.938Z,5.30
2022-12-24T22:24:41.753Z,5.40
2022-12-24T22:27:08.503Z,5.30
2022-12-24T22:29:35.577Z,5.30
2022-12-24T22:32:02.636Z,5.40
2022-12-24T22:34:29.567Z,5.20
2022-12-24T22:36:57.705Z,5.30
2022-12-24T22:39:24.857Z,5.20
2022-12-24T22:41:52.297Z,5.10
2022-12-24T22:44:19.222Z,5.00
2022-12-24T22:46:46.064Z,5.10
2022-12-24T22:49:12.852Z,5.10
2022-12-24T22:51:39.982Z,5.20
2022-12-24T22:54:10.097Z,5.20
2022-12-24T22:56:41.015Z,5.10
2022-12-24T22:59:12.086Z,5.10
2022-12-24T23:01:41.114Z,5.00
2022-12-24T23:04:09.192Z,5.10
2022-12-24T23:06:36.563Z,5.00
2022-12-24T23:09:05.044Z,5.00
2022-12-24T23:11:33.131Z,5.00
2022-12-24T23:13:59.948Z,5.10
2022-12-24T23:16:27.161Z,5.00
2022-12-24T23:18:54.365Z,5.10
2022-12-24T23:21:21.125Z,5.10
2022-12-24T23:23:47.972Z,5.20
2022-12-24T23:26:16.921Z,5.20
2022-12-24T23:28:45.839Z,5.30
2022-12-24T23:31:14.087Z,5.40
2022-12-24T23:33:41.299Z,5.40
2022-12-24T23:36:08.686Z,5.50
2022-12-24T23:38:35.543Z,5.50
2022-12-24T23:41:03.992Z,5.50
2022-12-24T23:43:31.297Z,5.60
2022-12-24T23:45:59.733Z,5.60
2022-12-24T23:48:27.075Z,5.60
2022-12-24T23:51:03.914Z,5.60
2022-12-24T23:53:30.711Z,5.60
2022-12-24T23:55:57.482Z,5.60
2022-12-24T23:58:24.234Z,5.60
